createdAt,value
2024-03-13T00:01:13.635Z,99448.10
2024-03-13T00:03:41.373Z,99447.56
2024-03-13T00:06:09.402Z,99451.31
2024-03-13T00:08:36.961Z,99450.73
2024-03-13T00:11:04.636Z,99451.39
2024-03-13T00:13:32.209Z,99452.29
2024-03-13T00:16:00.217Z,99450.83
2024-03-13T00:18:27.911Z,99449.31
2024-03-13T00:20:55.492Z,99450.03
2024-03-13T00:23:23.044Z,99449.79
2024-03-13T00:25:50.618Z,99453.57
2024-03-13T00:28:18.298Z,99452.13
2024-03-13T00:30:46.061Z,99452.60
2024-03-13T00:33:13.717Z,99454.11
2024-03-13T00:35:41.659Z,99449.88
2024-03-13T00:38:09.414Z,99454.52
2024-03-13T00:40:37.042Z,99452.33
2024-03-13T00:43:04.845Z,99453.00
2024-03-13T00:45:32.399Z,99453.49
2024-03-13T00:47:59.987Z,99452.34
2024-03-13T00:50:27.624Z,99448.30
2024-03-13T00:52:55.387Z,99448.90
2024-03-13T00:55:23.195Z,99448.25
2024-03-13T00:57:51.161Z,99450.56
2024-03-13T01:00:18.676Z,99450.86
2024-03-13T01:02:46.295Z,99453.66
2024-03-13T01:05:14.019Z,99447.11
2024-03-13T01:07:41.773Z,99448.73
2024-03-13T01:10:09.522Z,99448.04
2024-03-13T01:12:40.273Z,99450.00
2024-03-13T01:15:07.816Z,99451.26
2024-03-13T01:17:35.436Z,99451.77
2024-03-13T01:20:03.158Z,99451.72
2024-03-13T01:22:31.196Z,99452.00
2024-03-13T01:24:58.897Z,99452.89
2024-03-13T01:27:26.552Z,99453.02
2024-03-13T01:29:54.205Z,99454.16
2024-03-13T01:32:22.071Z,99458.30
2024-03-13T01:34:49.624Z,99458.05
2024-03-13T01:37:17.251Z,99451.90
2024-03-13T01:39:45.002Z,99449.85
2024-03-13T01:42:12.935Z,99449.89
2024-03-13T01:44:40.679Z,99447.74
2024-03-13T01:47:08.302Z,99450.45
2024-03-13T01:49:36.122Z,99446.73
2024-03-13T01:52:03.802Z,99446.21
2024-03-13T01:54:31.437Z,99443.95
2024-03-13T01:56:59.001Z,99442.69
2024-03-13T01:59:26.646Z,99439.04
2024-03-13T02:01:54.279Z,99436.48
2024-03-13T02:04:22.341Z,99437.10
2024-03-13T02:06:50.093Z,99430.00
2024-03-13T02:09:17.710Z,99427.69
2024-03-13T02:11:45.319Z,99427.60
2024-03-13T02:14:12.929Z,99430.92
2024-03-13T02:16:40.613Z,99427.96
2024-03-13T02:19:08.171Z,99433.94
2024-03-13T02:21:35.913Z,99427.91
2024-03-13T02:24:03.382Z,99427.05
2024-03-13T02:26:30.929Z,99426.37
2024-03-13T02:28:58.483Z,99426.73
2024-03-13T02:31:26.231Z,99425.39
2024-03-13T02:33:53.976Z,99428.71
2024-03-13T02:36:21.777Z,99428.39
2024-03-13T02:38:49.469Z,99430.48
2024-03-13T02:41:17.103Z,99430.56
2024-03-13T02:43:44.660Z,99431.05
2024-03-13T02:46:12.665Z,99431.33
2024-03-13T02:48:40.195Z,99429.19
2024-03-13T02:51:07.857Z,99429.08
2024-03-13T02:53:35.425Z,99426.65
2024-03-13T02:56:03.070Z,99432.36
2024-03-13T02:58:30.815Z,99431.37
2024-03-13T03:00:58.477Z,99434.05
2024-03-13T03:03:26.166Z,99436.06
2024-03-13T03:05:53.822Z,99440.16
2024-03-13T03:08:21.803Z,99443.20
2024-03-13T03:10:49.384Z,99444.91
2024-03-13T03:13:16.968Z,99449.60
2024-03-13T03:15:44.806Z,99451.55
2024-03-13T03:18:12.557Z,99448.45
2024-03-13T03:20:40.205Z,99446.68
2024-03-13T03:23:07.865Z,99443.80
2024-03-13T03:25:35.882Z,99449.69
2024-03-13T03:28:03.630Z,99450.58
2024-03-13T03:30:31.415Z,99452.39
2024-03-13T03:32:59.295Z,99462.62
2024-03-13T03:35:26.894Z,99461.16
2024-03-13T03:37:54.452Z,99461.09
2024-03-13T03:40:21.859Z,99461.49
2024-03-13T03:42:49.484Z,99464.50
2024-03-13T03:45:17.335Z,99463.34
2024-03-13T03:47:46.288Z,99466.80
2024-03-13T03:50:16.952Z,99469.21
2024-03-13T03:52:44.514Z,99470.80
2024-03-13T03:55:12.137Z,99474.12
2024-03-13T03:57:39.940Z,99476.14
2024-03-13T04:00:07.777Z,99474.27
2024-03-13T04:02:35.480Z,99474.44
2024-03-13T04:05:03.237Z,99483.71
2024-03-13T04:07:30.795Z,99485.64
2024-03-13T04:09:58.610Z,99485.67
2024-03-13T04:12:26.527Z,99484.67
2024-03-13T04:14:54.084Z,99485.07
2024-03-13T04:17:21.650Z,99482.39
2024-03-13T04:19:49.308Z,99488.69
2024-03-13T04:22:16.898Z,99489.12
2024-03-13T04:24:44.547Z,99493.41
2024-03-13T04:27:12.291Z,99494.69
2024-03-13T04:29:44.354Z,99496.11
2024-03-13T04:32:16.420Z,99494.20
2024-03-13T04:34:43.992Z,99493.34
2024-03-13T04:37:11.559Z,99497.88
2024-03-13T04:39:39.623Z,99498.47
2024-03-13T04:42:07.272Z,99497.66
2024-03-13T04:44:34.833Z,99497.70
2024-03-13T04:47:02.492Z,99501.29
2024-03-13T04:49:30.123Z,99504.04
2024-03-13T04:51:57.877Z,99505.29
2024-03-13T04:54:25.888Z,99508.48
2024-03-13T04:56:53.545Z,99509.39
2024-03-13T04:59:21.111Z,99515.11
2024-03-13T05:01:48.791Z,99517.06
2024-03-13T05:04:16.584Z,99516.58
2024-03-13T05:06:44.306Z,99517.46
2024-03-13T05:09:12.017Z,99523.34
2024-03-13T05:11:39.692Z,99522.98
2024-03-13T05:14:07.622Z,99527.70
2024-03-13T05:16:35.252Z,99527.42
2024-03-13T05:19:02.849Z,99531.90
2024-03-13T05:21:30.476Z,99533.27
2024-03-13T05:23:58.039Z,99533.02
2024-03-13T05:26:25.599Z,99536.90
2024-03-13T05:28:53.154Z,99541.96
2024-03-13T05:31:20.739Z,99540.14
2024-03-13T05:33:48.312Z,99539.77
2024-03-13T05:36:16.345Z,99542.81
2024-03-13T05:38:44.006Z,99549.06
2024-03-13T05:41:11.672Z,99552.63
2024-03-13T05:43:39.448Z,99549.14
2024-03-13T05:46:07.241Z,99553.13
2024-03-13T05:48:34.855Z,99552.67
2024-03-13T05:51:02.406Z,99553.29
2024-03-13T05:53:29.966Z,99555.27
2024-03-13T05:55:57.750Z,99556.17
2024-03-13T05:58:25.750Z,99556.05
2024-03-13T06:00:53.549Z,99556.01
2024-03-13T06:03:21.437Z,99561.42
2024-03-13T06:05:49.100Z,99560.12
2024-03-13T06:08:16.812Z,99561.48
2024-03-13T06:10:44.689Z,99558.10
2024-03-13T06:13:12.519Z,99564.84
2024-03-13T06:15:40.255Z,99566.31
2024-03-13T06:18:08.164Z,99567.66
2024-03-13T06:20:35.804Z,99568.45
2024-03-13T06:23:03.349Z,99572.05
2024-03-13T06:25:31.038Z,99570.85
2024-03-13T06:27:58.685Z,99574.84
2024-03-13T06:30:26.136Z,99575.63
2024-03-13T06:32:53.736Z,99574.65
2024-03-13T06:35:21.462Z,99580.20
2024-03-13T06:37:49.013Z,99577.99
2024-03-13T06:40:17.073Z,99576.84
2024-03-13T06:42:44.848Z,99578.96
2024-03-13T06:45:18.785Z,99580.02
2024-03-13T06:47:52.206Z,99579.13
2024-03-13T06:50:19.709Z,99584.38
2024-03-13T06:52:47.269Z,99585.59
2024-03-13T06:55:15.011Z,99590.27
2024-03-13T06:57:42.693Z,99591.59
2024-03-13T07:00:12.604Z,99592.55
2024-03-13T07:02:40.169Z,99592.27
2024-03-13T07:05:08.148Z,99592.40
2024-03-13T07:07:35.719Z,99596.65
2024-03-13T07:10:03.573Z,99591.52
2024-03-13T07:12:31.233Z,99594.79
2024-03-13T07:14:58.888Z,99592.94
2024-03-13T07:17:26.448Z,99593.98
2024-03-13T07:19:54.105Z,99595.44
2024-03-13T07:22:21.729Z,99597.45
2024-03-13T07:24:49.481Z,99602.66
2024-03-13T07:27:17.298Z,99602.67
2024-03-13T07:29:44.851Z,99607.69
2024-03-13T07:32:12.414Z,99610.88
2024-03-13T07:34:40.004Z,99608.09
2024-03-13T07:37:07.670Z,99610.10
2024-03-13T07:39:35.406Z,99607.04
2024-03-13T07:42:02.960Z,99609.73
2024-03-13T07:44:30.934Z,99604.20
2024-03-13T07:46:58.482Z,99604.60
2024-03-13T07:49:26.083Z,99605.61
2024-03-13T07:51:53.847Z,99606.83
2024-03-13T07:54:21.572Z,99612.02
2024-03-13T07:56:49.134Z,99612.22
2024-03-13T07:59:16.816Z,99612.97
2024-03-13T08:01:44.639Z,99611.52
2024-03-13T08:04:12.428Z,99609.90
2024-03-13T09:07:11.226Z,99645.40
2024-03-13T09:09:38.875Z,99644.67
2024-03-13T09:12:07.417Z,99644.82
2024-03-13T09:14:35.060Z,99643.63
2024-03-13T09:17:02.677Z,99645.92
2024-03-13T09:19:30.250Z,99648.31
2024-03-13T09:21:58.103Z,99649.41
2024-03-13T09:24:26.018Z,99648.38
2024-03-13T09:26:53.683Z,99651.23
2024-03-13T09:29:24.075Z,99650.06
2024-03-13T09:31:51.722Z,99652.86
2024-03-13T09:34:19.386Z,99651.83
2024-03-13T09:36:47.147Z,99652.32
2024-03-13T09:39:14.844Z,99652.10
2024-03-13T09:41:42.823Z,99654.03
2024-03-13T09:44:10.338Z,99651.34
2024-03-13T09:46:37.995Z,99651.86
2024-03-13T09:49:08.535Z,99655.34
2024-03-13T09:51:36.196Z,99654.86
2024-03-13T09:54:03.786Z,99652.79
2024-03-13T09:56:31.597Z,99658.55
2024-03-13T09:58:59.501Z,99659.42
2024-03-13T10:01:27.143Z,99662.16
2024-03-13T10:03:58.143Z,99660.36
2024-03-13T10:06:26.309Z,99659.84
2024-03-13T10:08:54.076Z,99661.51
2024-03-13T10:11:21.715Z,99652.98
2024-03-13T10:13:49.239Z,99649.42
2024-03-13T10:16:16.912Z,99652.71
2024-03-13T10:18:44.628Z,99647.29
2024-03-13T10:21:12.491Z,99644.25
2024-03-13T10:23:40.221Z,99641.69
2024-03-13T10:26:07.759Z,99640.44
2024-03-13T10:28:35.312Z,99638.48
2024-03-13T10:31:02.895Z,99640.40
2024-03-13T10:33:30.596Z,99639.21
2024-03-13T10:35:58.318Z,99640.84
2024-03-13T10:38:26.060Z,99639.98
2024-03-13T10:40:53.839Z,99637.95
2024-03-13T10:43:21.490Z,99640.84
2024-03-13T10:45:49.360Z,99642.91
2024-03-13T10:48:17.116Z,99641.28
2024-03-13T10:50:44.940Z,99640.10
2024-03-13T10:53:12.652Z,99643.64
2024-03-13T10:55:40.305Z,99642.34
2024-03-13T10:58:07.867Z,99640.84
2024-03-13T11:00:35.527Z,99641.06
2024-03-13T11:03:03.486Z,99640.13
2024-03-13T11:05:31.167Z,99641.20
2024-03-13T11:07:59.243Z,99639.40
2024-03-13T11:10:26.735Z,99640.20
2024-03-13T11:12:54.423Z,99636.72
2024-03-13T11:15:22.319Z,99635.95
2024-03-13T11:17:50.185Z,99635.36
2024-03-13T11:20:17.878Z,99628.01
2024-03-13T11:22:45.410Z,99625.70
2024-03-13T11:25:13.067Z,99622.95
2024-03-13T11:27:40.739Z,99626.08
2024-03-13T11:30:09.217Z,99626.66
2024-03-13T11:32:37.084Z,99620.11
2024-03-13T11:35:04.846Z,99620.17
2024-03-13T11:37:32.402Z,99621.21
2024-03-13T11:39:59.961Z,99622.70
2024-03-13T11:42:27.555Z,99623.02
2024-03-13T11:44:57.085Z,99625.11
2024-03-13T11:47:24.728Z,99621.63
2024-03-13T11:49:52.450Z,99621.46
2024-03-13T11:52:20.010Z,99618.50
2024-03-13T11:54:47.677Z,99619.09
2024-03-13T11:57:15.757Z,99616.79
2024-03-13T11:59:43.519Z,99615.15
2024-03-13T12:02:11.168Z,99621.94
2024-03-13T12:04:38.926Z,99622.27
2024-03-13T12:07:06.491Z,99620.51
2024-03-13T12:09:34.167Z,99617.59
2024-03-13T12:12:01.906Z,99615.52
2024-03-13T12:14:30.604Z,99612.23
2024-03-13T12:16:58.263Z,99609.89
2024-03-13T12:19:25.838Z,99610.50
2024-03-13T12:21:53.486Z,99610.80
2024-03-13T12:24:21.107Z,99608.48
2024-03-13T12:26:48.825Z,99611.83
2024-03-13T12:29:16.587Z,99605.83
2024-03-13T12:31:44.238Z,99607.02
2024-03-13T12:34:11.803Z,99607.67
2024-03-13T12:36:39.481Z,99605.52
2024-03-13T12:39:07.186Z,99605.81
2024-03-13T12:41:35.204Z,99607.39
2024-03-13T12:44:02.856Z,99604.84
2024-03-13T12:46:30.732Z,99606.41
2024-03-13T12:48:58.452Z,99608.79
2024-03-13T12:51:26.556Z,99607.77
2024-03-13T12:53:54.228Z,99608.16
2024-03-13T12:56:21.768Z,99604.67
2024-03-13T12:58:49.431Z,99607.88
2024-03-13T13:01:17.104Z,99608.06
2024-03-13T13:03:44.661Z,99610.39
2024-03-13T13:06:12.463Z,99610.08
2024-03-13T13:08:40.059Z,99610.20
2024-03-13T13:11:07.909Z,99615.23
2024-03-13T13:13:36.070Z,99616.27
2024-03-13T13:16:03.682Z,99619.67
2024-03-13T13:18:31.281Z,99618.92
2024-03-13T13:20:59.116Z,99614.77
2024-03-13T13:23:26.664Z,99615.95
2024-03-13T13:25:54.217Z,99613.44
2024-03-13T13:28:21.788Z,99613.97
2024-03-13T13:30:49.454Z,99617.63
2024-03-13T13:33:17.546Z,99614.23
2024-03-13T13:35:45.318Z,99614.91
2024-03-13T13:38:13.133Z,99612.06
2024-03-13T13:40:40.931Z,99612.50
2024-03-13T13:43:08.576Z,99608.86
2024-03-13T13:45:36.341Z,99605.94
2024-03-13T13:48:04.081Z,99612.33
2024-03-13T13:50:31.456Z,99607.33
2024-03-13T13:52:59.113Z,99611.28
2024-03-13T13:55:26.674Z,99609.16
2024-03-13T13:57:54.716Z,99611.55
2024-03-13T14:00:24.742Z,99609.10
2024-03-13T14:02:53.911Z,99603.90
2024-03-13T14:05:22.304Z,99604.18
2024-03-13T14:07:50.112Z,99605.23
2024-03-13T14:10:17.760Z,99601.12
2024-03-13T14:12:45.443Z,99595.07
2024-03-13T14:15:13.345Z,99592.64
2024-03-13T14:17:40.970Z,99593.64
2024-03-13T14:20:08.717Z,99594.48
2024-03-13T14:22:36.391Z,99603.67
2024-03-13T14:25:04.054Z,99602.23
2024-03-13T14:27:31.602Z,99609.25
2024-03-13T14:29:59.274Z,99607.77
2024-03-13T14:32:26.897Z,99608.08
2024-03-13T14:34:59.052Z,99612.58
2024-03-13T14:37:27.376Z,99615.72
2024-03-13T14:39:55.029Z,99613.52
2024-03-13T14:42:28.624Z,99615.28
2024-03-13T14:45:02.194Z,99619.61
2024-03-13T14:47:30.187Z,99619.45
2024-03-13T14:49:57.940Z,99619.46
2024-03-13T14:52:25.609Z,99618.27
2024-03-13T14:54:53.759Z,99618.75
2024-03-13T14:57:22.176Z,99622.46
2024-03-13T14:59:50.029Z,99621.52
2024-03-13T15:02:17.895Z,99620.55
2024-03-13T15:04:45.580Z,99620.55
2024-03-13T15:07:13.232Z,99620.60
2024-03-13T15:09:40.899Z,99620.19
2024-03-13T15:12:09.277Z,99624.13
2024-03-13T15:14:37.771Z,99624.23
2024-03-13T15:17:05.419Z,99620.24
2024-03-13T15:19:32.978Z,99627.86
2024-03-13T15:22:00.744Z,99626.88
2024-03-13T15:24:28.343Z,99628.23
2024-03-13T15:26:55.994Z,99629.41
2024-03-13T15:29:23.545Z,99631.20
2024-03-13T15:31:51.200Z,99633.16
2024-03-13T15:34:18.755Z,99636.01
2024-03-13T15:36:46.401Z,99633.75
2024-03-13T15:39:14.024Z,99636.63
2024-03-13T15:41:43.985Z,99640.25
2024-03-13T15:44:12.895Z,99638.80
2024-03-13T15:46:40.535Z,99640.20
2024-03-13T15:49:08.232Z,99643.02
2024-03-13T15:51:35.959Z,99645.59
2024-03-13T15:54:03.557Z,99644.80
2024-03-13T15:56:31.284Z,99643.79
2024-03-13T15:58:58.940Z,99645.05
2024-03-13T16:01:27.147Z,99642.69
2024-03-13T16:03:54.894Z,99643.27
2024-03-13T16:06:22.670Z,99640.20
2024-03-13T16:08:50.562Z,99640.59
2024-03-13T16:11:18.216Z,99640.98
2024-03-13T16:13:45.938Z,99640.13
2024-03-13T16:16:13.606Z,99642.38
2024-03-13T16:18:41.316Z,99640.18
2024-03-13T16:21:09.088Z,99641.31
2024-03-13T16:23:37.168Z,99644.53
2024-03-13T16:26:05.084Z,99648.65
2024-03-13T16:28:32.988Z,99649.47
2024-03-13T16:31:00.695Z,99653.90
2024-03-13T16:33:28.620Z,99654.36
2024-03-13T16:35:56.389Z,99651.15
2024-03-13T16:38:24.096Z,99651.59
2024-03-13T16:40:51.654Z,99653.91
2024-03-13T16:43:19.749Z,99652.85
2024-03-13T16:45:47.663Z,99657.14
2024-03-13T16:48:15.516Z,99654.56
2024-03-13T16:50:43.155Z,99656.01
2024-03-13T16:53:10.880Z,99656.96
2024-03-13T16:55:38.545Z,99661.34
2024-03-13T16:58:06.097Z,99664.98
2024-03-13T17:00:33.743Z,99665.47
2024-03-13T17:03:01.619Z,99667.94
2024-03-13T17:05:29.400Z,99673.40
2024-03-13T17:07:57.392Z,99677.48
2024-03-13T17:10:24.921Z,99678.09
2024-03-13T17:12:52.585Z,99678.29
2024-03-13T17:15:20.669Z,99679.73
2024-03-13T17:17:48.622Z,99678.93
2024-03-13T17:20:16.396Z,99681.81
2024-03-13T17:22:43.947Z,99682.93
2024-03-13T17:25:11.610Z,99688.91
2024-03-13T17:27:39.164Z,99695.02
2024-03-13T17:30:07.205Z,99697.58
2024-03-13T17:32:34.857Z,99697.77
2024-03-13T17:35:02.910Z,99695.50
2024-03-13T17:37:30.667Z,99700.25
2024-03-13T17:39:58.398Z,99702.43
2024-03-13T17:42:26.154Z,99700.54
2024-03-13T17:44:53.933Z,99702.73
2024-03-13T17:47:21.586Z,99706.24
2024-03-13T17:49:49.230Z,99705.86
2024-03-13T17:52:17.117Z,99708.54
2024-03-13T17:54:44.790Z,99708.92
2024-03-13T17:57:12.521Z,99709.66
2024-03-13T17:59:40.288Z,99709.34
2024-03-13T18:02:07.979Z,99713.17
2024-03-13T18:04:35.530Z,99712.83
2024-03-13T18:07:03.193Z,99713.23
2024-03-13T18:09:30.879Z,99716.98
2024-03-13T18:11:58.750Z,99715.66
2024-03-13T18:14:26.375Z,99714.77
2024-03-13T18:16:54.049Z,99715.24
2024-03-13T18:19:21.623Z,99713.15
2024-03-13T18:21:49.164Z,99714.48
2024-03-13T18:24:16.767Z,99715.16
2024-03-13T18:26:44.504Z,99720.27
2024-03-13T18:29:12.259Z,99717.64
2024-03-13T18:31:39.910Z,99714.64
2024-03-13T18:34:07.641Z,99714.60
2024-03-13T18:36:35.337Z,99717.27
2024-03-13T18:39:04.917Z,99719.02
2024-03-13T18:41:33.220Z,99721.98
2024-03-13T18:44:00.893Z,99722.45
2024-03-13T18:46:28.544Z,99722.49
2024-03-13T18:48:56.146Z,99726.26
2024-03-13T18:51:24.240Z,99725.50
2024-03-13T18:53:52.169Z,99723.52
2024-03-13T18:56:19.813Z,99721.44
2024-03-13T18:58:47.368Z,99729.70
2024-03-13T19:01:15.070Z,99726.02
2024-03-13T19:03:42.785Z,99725.97
2024-03-13T19:06:10.437Z,99726.53
2024-03-13T19:08:38.108Z,99729.01
2024-03-13T19:11:05.769Z,99727.33
2024-03-13T19:13:33.838Z,99730.58
2024-03-13T19:16:01.299Z,99729.75
2024-03-13T19:18:29.015Z,99729.39
2024-03-13T19:20:56.740Z,99731.77
2024-03-13T19:23:24.388Z,99733.27
2024-03-13T19:25:51.969Z,99732.49
2024-03-13T19:28:19.545Z,99728.73
2024-03-13T19:30:47.073Z,99728.86
2024-03-13T19:33:15.092Z,99726.58
2024-03-13T19:35:42.948Z,99722.45
2024-03-13T19:38:10.663Z,99723.73
2024-03-13T19:40:40.313Z,99719.77
2024-03-13T19:43:08.656Z,99719.64
2024-03-13T19:45:36.487Z,99727.41
2024-03-13T19:48:04.268Z,99733.30
2024-03-13T19:50:31.841Z,99733.50
2024-03-13T19:52:59.412Z,99732.91
2024-03-13T19:55:26.957Z,99736.15
2024-03-13T19:57:54.920Z,99734.81
2024-03-13T20:00:22.524Z,99737.67
2024-03-13T20:02:50.287Z,99737.58
2024-03-13T20:05:17.913Z,99736.77
2024-03-13T20:07:45.572Z,99736.95
2024-03-13T20:10:13.342Z,99732.25
2024-03-13T20:12:41.308Z,99736.69
2024-03-13T20:15:09.492Z,99742.45
2024-03-13T20:17:37.262Z,99739.77
2024-03-13T20:20:05.221Z,99738.16
2024-03-13T20:22:32.878Z,99740.10
2024-03-13T20:25:00.651Z,99741.54
2024-03-13T20:27:28.487Z,99738.64
2024-03-13T20:29:56.313Z,99736.07
2024-03-13T20:32:23.931Z,99731.20
2024-03-13T20:34:51.493Z,99723.74
2024-03-13T20:37:19.056Z,99725.27
2024-03-13T20:39:47.231Z,99722.63
2024-03-13T20:42:14.799Z,99724.46
2024-03-13T20:44:42.453Z,99731.06
2024-03-13T20:47:10.023Z,99734.44
2024-03-13T20:49:37.681Z,99730.56
2024-03-13T20:52:05.330Z,99732.66
2024-03-13T20:54:32.948Z,99729.42
2024-03-13T20:57:00.620Z,99729.90
2024-03-13T20:59:28.331Z,99729.88
2024-03-13T21:01:55.976Z,99723.73
2024-03-13T21:04:23.538Z,99727.30
2024-03-13T21:06:51.199Z,99727.39
2024-03-13T21:09:18.814Z,99727.35
2024-03-13T21:11:46.611Z,99728.50
2024-03-13T21:14:14.298Z,99729.23
2024-03-13T21:16:42.051Z,99729.08
2024-03-13T21:19:09.608Z,99726.94
2024-03-13T21:21:37.272Z,99720.95
2024-03-13T21:24:04.698Z,99719.73
2024-03-13T21:26:32.397Z,99713.60
2024-03-13T21:29:00.053Z,99712.23
2024-03-13T21:31:27.614Z,99709.96
2024-03-13T21:33:55.359Z,99711.08
2024-03-13T21:36:23.171Z,99710.64
2024-03-13T21:38:50.745Z,99709.65
2024-03-13T21:41:18.767Z,99710.63
2024-03-13T21:43:46.326Z,99707.84
2024-03-13T21:46:13.997Z,99709.63
2024-03-13T21:48:41.661Z,99714.75
2024-03-13T21:51:09.428Z,99713.31
2024-03-13T21:53:37.115Z,99714.64
2024-03-13T21:56:04.642Z,99717.40
2024-03-13T21:58:32.296Z,99713.75
2024-03-13T22:00:59.872Z,99713.28
2024-03-13T22:03:28.082Z,99714.58
2024-03-13T22:05:55.732Z,99716.58
2024-03-13T22:08:23.470Z,99718.75
2024-03-13T22:10:51.014Z,99713.00
2024-03-13T22:13:18.801Z,99713.46
2024-03-13T22:15:46.545Z,99712.89
2024-03-13T22:18:14.289Z,99717.02
2024-03-13T22:20:42.009Z,99718.59
2024-03-13T22:23:10.145Z,99719.64
2024-03-13T22:25:37.756Z,99716.80
2024-03-13T22:28:05.468Z,99718.15
2024-03-13T22:30:32.837Z,99715.48
2024-03-13T22:33:00.664Z,99718.00
2024-03-13T22:35:28.456Z,99723.30
2024-03-13T22:37:56.137Z,99717.48
2024-03-13T22:40:23.669Z,99713.55
2024-03-13T22:42:51.339Z,99709.34
2024-03-13T22:45:19.004Z,99706.23
2024-03-13T22:47:46.915Z,99706.13
2024-03-13T22:50:14.655Z,99710.02
2024-03-13T22:52:42.190Z,99705.97
2024-03-13T22:55:09.749Z,99704.38
2024-03-13T22:57:37.309Z,99701.19
2024-03-13T23:00:04.993Z,99700.14
2024-03-13T23:02:32.734Z,99697.09
2024-03-13T23:05:00.402Z,99699.66
2024-03-13T23:07:27.968Z,99701.58
2024-03-13T23:09:56.137Z,99698.38
2024-03-13T23:12:24.054Z,99695.80
2024-03-13T23:14:51.774Z,99694.64
2024-03-13T23:17:19.528Z,99696.76
2024-03-13T23:19:47.107Z,99697.36
2024-03-13T23:22:14.638Z,99700.39
2024-03-13T23:24:42.196Z,99698.16
2024-03-13T23:27:10.200Z,99697.40
2024-03-13T23:29:37.732Z,99696.11
2024-03-13T23:32:05.970Z,99692.98
2024-03-13T23:34:33.879Z,99694.77
2024-03-13T23:37:01.431Z,99695.80
2024-03-13T23:39:29.151Z,99696.67
2024-03-13T23:41:56.887Z,99698.15
2024-03-13T23:44:24.517Z,99697.73
2024-03-13T23:46:52.081Z,99699.80
2024-03-13T23:49:20.049Z,99700.43
2024-03-13T23:51:47.716Z,99701.19
2024-03-13T23:54:15.306Z,99701.15
2024-03-13T23:56:42.929Z,99704.20
2024-03-13T23:59:10.794Z,99707.21
